Time;durP1;ratioP1;P1;durP2;ratioP2;P2;SDS_P1;SDS_P2;PMS_P1;PMS_P2;Temp;Humidity;BMP_temperature;BMP_pressure;BME280_temperature;BME280_humidity;BME280_pressure;Samples;Min_cycle;Max_cycle;Signal;HPM_P1;HPM_P2
2023/12/02 00:02:17;;;;;;;1.63;1.57;;;;;;;2.40;100.00;93761.44;4319679;32;20309;-65
2023/12/02 00:04:43;;;;;;;1.30;1.30;;;;;;;2.27;100.00;93759.50;4320434;32;20196;-65
2023/12/02 00:07:09;;;;;;;1.80;1.80;;;;;;;2.34;100.00;93759.94;4321288;33;20220;-65
2023/12/02 00:09:36;;;;;;;1.93;1.83;;;;;;;2.20;100.00;93761.66;4315396;32;20240;-65
2023/12/02 00:12:01;;;;;;;2.17;1.93;;;;;;;2.14;100.00;93760.16;4330545;32;20355;-65
2023/12/02 00:14:28;;;;;;;1.87;1.77;;;;;;;2.13;100.00;93756.75;4313347;32;20281;-66
2023/12/02 00:16:55;;;;;;;1.20;1.20;;;;;;;2.21;100.00;93752.78;4332986;32;20279;-65
2023/12/02 00:19:21;;;;;;;1.73;1.63;;;;;;;2.16;100.00;93761.44;4346118;32;20298;-65
2023/12/02 00:21:47;;;;;;;1.13;1.13;;;;;;;2.14;100.00;93752.31;4345564;32;20277;-65
2023/12/02 00:24:12;;;;;;;2.30;2.10;;;;;;;2.12;100.00;93757.03;4340539;32;20169;-64
2023/12/02 00:26:39;;;;;;;1.47;1.43;;;;;;;2.05;100.00;93760.78;4297633;32;20182;-64
2023/12/02 00:29:04;;;;;;;1.70;1.17;;;;;;;1.99;100.00;93750.66;4338209;32;20177;-64
2023/12/02 00:31:31;;;;;;;1.40;1.40;;;;;;;2.11;100.00;93758.09;4332355;32;20289;-64
2023/12/02 00:33:57;;;;;;;6.63;1.57;;;;;;;2.01;100.00;93762.41;4324563;32;20244;-64
2023/12/02 00:36:24;;;;;;;1.53;1.53;;;;;;;2.12;100.00;93755.22;4322048;32;20360;-64
2023/12/02 00:38:50;;;;;;;1.03;1.03;;;;;;;2.12;100.00;93749.97;4312787;32;20194;-64
2023/12/02 00:41:15;;;;;;;2.10;2.00;;;;;;;2.22;100.00;93749.88;4329675;32;20313;-64
2023/12/02 00:43:41;;;;;;;2.37;2.23;;;;;;;2.29;100.00;93755.53;4313766;32;20181;-64
2023/12/02 00:46:09;;;;;;;1.83;1.77;;;;;;;2.24;100.00;93754.81;4307446;32;20269;-64
2023/12/02 00:48:35;;;;;;;2.53;2.43;;;;;;;2.16;100.00;93760.66;4319773;32;20209;-64
2023/12/02 00:51:06;;;;;;;1.47;1.10;;;;;;;2.17;100.00;93755.16;4270724;32;20290;-64
2023/12/02 00:53:32;;;;;;;2.47;2.37;;;;;;;2.29;100.00;93759.97;4318873;32;20277;-64
2023/12/02 00:55:58;;;;;;;2.23;2.10;;;;;;;2.32;100.00;93765.44;4297409;33;20368;-64
2023/12/02 00:58:23;;;;;;;1.27;1.27;;;;;;;2.39;100.00;93767.72;4268901;33;20370;-64
2023/12/02 01:00:48;;;;;;;1.77;1.67;;;;;;;2.20;100.00;93766.91;4331039;32;20185;-64
2023/12/02 01:03:15;;;;;;;3.20;2.00;;;;;;;2.01;100.00;93765.00;4333948;32;20184;-64
2023/12/02 01:05:41;;;;;;;1.20;1.17;;;;;;;2.21;100.00;93769.25;4315793;32;20190;-63
2023/12/02 01:08:06;;;;;;;1.23;1.23;;;;;;;2.27;100.00;93772.59;4315244;32;20352;-63
2023/12/02 01:10:33;;;;;;;1.73;1.73;;;;;;;2.24;100.00;93775.75;4318226;32;20185;-64
2023/12/02 01:12:58;;;;;;;2.73;2.30;;;;;;;1.91;100.00;93774.78;4291959;33;20205;-64
2023/12/02 01:15:24;;;;;;;1.10;1.10;;;;;;;2.06;100.00;93782.50;4331687;32;20372;-64
2023/12/02 01:17:49;;;;;;;3.40;3.20;;;;;;;1.88;100.00;93791.81;4358232;32;20227;-64
2023/12/02 01:20:15;;;;;;;2.27;2.17;;;;;;;1.87;100.00;93784.25;4316765;32;20235;-64
2023/12/02 01:22:41;;;;;;;2.37;1.27;;;;;;;2.00;100.00;93788.81;4301463;32;20205;-65
2023/12/02 01:25:08;;;;;;;1.83;1.77;;;;;;;1.97;100.00;93784.94;4302433;33;20189;-64
2023/12/02 01:27:33;;;;;;;1.47;1.47;;;;;;;2.04;100.00;93788.00;4328387;32;20294;-59
2023/12/02 01:30:00;;;;;;;1.57;1.47;;;;;;;0.68;100.00;93792.47;4314888;33;20304;-61
2023/12/02 01:32:26;;;;;;;1.62;1.52;;;;;;;0.79;100.00;93791.38;4306924;32;20241;-61
2023/12/02 01:34:52;;;;;;;2.20;2.10;;;;;;;0.82;100.00;93790.84;4282783;32;20186;-61
2023/12/02 01:37:19;;;;;;;2.40;2.30;;;;;;;0.97;100.00;93784.72;4302420;33;20672;-61
2023/12/02 01:39:46;;;;;;;1.70;1.62;;;;;;;0.60;100.00;93772.97;4315011;32;20198;-62
2023/12/02 01:42:12;;;;;;;1.83;1.80;;;;;;;0.88;100.00;93773.28;4321664;32;20200;-62
2023/12/02 01:44:38;;;;;;;1.00;1.00;;;;;;;1.02;100.00;93764.59;4328354;32;20182;-62
2023/12/02 01:47:04;;;;;;;1.23;1.23;;;;;;;0.91;100.00;93772.75;4331429;32;20240;-63
2023/12/02 01:49:31;;;;;;;1.93;1.83;;;;;;;0.75;100.00;93771.31;4279891;32;20201;-63
2023/12/02 01:51:57;;;;;;;2.47;2.37;;;;;;;1.01;100.00;93772.69;4320998;32;20186;-63
2023/12/02 01:54:23;;;;;;;1.20;1.07;;;;;;;1.07;100.00;93763.75;4304064;32;20297;-63
2023/12/02 01:56:49;;;;;;;2.50;2.25;;;;;;;0.90;100.00;93771.19;4281795;32;20181;-63
2023/12/02 01:59:19;;;;;;;1.80;1.70;;;;;;;1.03;100.00;93776.59;4290024;32;20247;-63
2023/12/02 02:01:46;;;;;;;2.87;2.67;;;;;;;1.14;100.00;93771.28;4311179;33;20273;-63
2023/12/02 02:04:11;;;;;;;3.37;3.10;;;;;;;1.14;100.00;93766.84;4313521;32;20202;-63
2023/12/02 02:06:38;;;;;;;1.43;1.43;;;;;;;1.30;100.00;93760.44;4332112;32;20509;-63
2023/12/02 02:09:08;;;;;;;1.80;1.80;;;;;;;1.15;100.00;93757.19;4294011;33;20209;-62
2023/12/02 02:11:33;;;;;;;1.73;1.62;;;;;;;1.38;100.00;93757.25;4326756;32;20190;-62
2023/12/02 02:14:00;;;;;;;2.30;2.17;;;;;;;1.26;100.00;93754.22;4331368;32;20206;-63
2023/12/02 02:16:27;;;;;;;1.90;1.80;;;;;;;0.93;100.00;93755.78;4319474;33;20186;-62
2023/12/02 02:18:53;;;;;;;2.53;2.43;;;;;;;1.26;100.00;93750.81;4341384;32;20369;-63
2023/12/02 02:21:23;;;;;;;2.72;2.50;;;;;;;1.14;100.00;93761.63;4327306;32;20278;-63
2023/12/02 02:23:49;;;;;;;1.50;1.50;;;;;;;1.18;100.00;93757.44;4311131;32;20191;-63
2023/12/02 02:26:16;;;;;;;1.40;1.40;;;;;;;1.24;100.00;93752.94;4323244;32;20344;-62
2023/12/02 02:28:41;;;;;;;2.87;2.67;;;;;;;1.27;100.00;93750.56;4330574;32;20266;-62
2023/12/02 02:31:08;;;;;;;1.70;1.70;;;;;;;1.36;100.00;93755.97;4312658;33;20297;-62
2023/12/02 02:33:34;;;;;;;2.30;2.20;;;;;;;1.21;100.00;93761.34;4299945;32;20187;-62
2023/12/02 02:35:59;;;;;;;1.52;1.37;;;;;;;1.20;100.00;93771.00;4314905;32;20309;-63
2023/12/02 02:38:25;;;;;;;2.47;2.37;;;;;;;1.02;100.00;93769.03;4325587;32;20185;-63
2023/12/02 02:40:50;;;;;;;1.97;1.87;;;;;;;0.96;100.00;93762.28;4298116;32;20240;-63
2023/12/02 02:43:16;;;;;;;2.10;2.00;;;;;;;1.13;100.00;93757.47;4315173;33;20197;-63
2023/12/02 02:45:43;;;;;;;1.83;1.83;;;;;;;1.18;100.00;93760.03;4304770;33;20249;-63
2023/12/02 02:48:11;;;;;;;2.15;2.05;;;;;;;1.19;100.00;93779.09;4320968;32;20200;-63
2023/12/02 02:50:36;;;;;;;2.25;2.03;;;;;;;1.08;100.00;93773.16;4329856;32;20201;-62
2023/12/02 02:53:01;;;;;;;1.30;1.20;;;;;;;0.99;100.00;93769.59;4317062;32;20189;-63
2023/12/02 02:55:28;;;;;;;2.87;2.77;;;;;;;1.18;100.00;93778.31;4288367;33;20208;-64
2023/12/02 02:57:58;;;;;;;2.33;2.23;;;;;;;1.00;100.00;93778.97;4338852;32;20229;-63
2023/12/02 03:00:24;;;;;;;2.40;2.25;;;;;;;1.35;100.00;93777.91;4342542;32;20361;-64
2023/12/02 03:02:50;;;;;;;5.13;1.93;;;;;;;1.32;100.00;93788.91;4342431;32;20177;-63
2023/12/02 03:05:15;;;;;;;2.20;2.13;;;;;;;1.35;100.00;93783.94;4323275;32;20400;-63
2023/12/02 03:07:40;;;;;;;1.80;1.67;;;;;;;1.33;100.00;93778.19;4293679;33;20244;-63
2023/12/02 03:10:07;;;;;;;4.40;4.13;;;;;;;1.33;100.00;93780.81;4310742;33;20186;-63
2023/12/02 03:12:33;;;;;;;3.15;2.95;;;;;;;1.23;100.00;93775.69;4325520;33;20190;-64
2023/12/02 03:15:00;;;;;;;3.00;2.08;;;;;;;1.04;100.00;93783.34;4305029;33;20194;-64
2023/12/02 03:17:27;;;;;;;1.85;1.85;;;;;;;1.12;100.00;93778.62;4318411;33;20252;-64
2023/12/02 03:19:53;;;;;;;2.03;1.92;;;;;;;1.22;100.00;93774.13;4320235;32;20177;-64
2023/12/02 03:22:19;;;;;;;5.97;3.30;;;;;;;1.26;100.00;93780.31;4333398;32;20291;-65
2023/12/02 03:24:45;;;;;;;1.23;1.23;;;;;;;1.48;100.00;93784.34;4326144;32;20185;-64
2023/12/02 03:27:12;;;;;;;2.42;2.33;;;;;;;1.34;100.00;93787.59;4334429;32;20232;-64
2023/12/02 03:29:37;;;;;;;1.17;1.17;;;;;;;1.51;100.00;93787.19;4324452;32;20199;-63
2023/12/02 03:32:04;;;;;;;1.20;1.20;;;;;;;1.60;100.00;93795.22;4334608;32;20185;-61
2023/12/02 03:34:30;;;;;;;2.40;2.20;;;;;;;1.55;100.00;93792.66;4343690;32;20216;-64
2023/12/02 03:36:57;;;;;;;1.55;1.45;;;;;;;1.48;100.00;93789.56;4357768;32;20273;-64
2023/12/02 03:39:23;;;;;;;2.30;2.20;;;;;;;1.18;100.00;93788.75;4355702;32;20256;-64
2023/12/02 03:41:49;;;;;;;2.03;1.93;;;;;;;1.29;100.00;93805.91;4327223;32;20177;-65
2023/12/02 03:44:17;;;;;;;1.05;1.05;;;;;;;1.32;100.00;93815.81;4325966;32;20192;-64
2023/12/02 03:46:44;;;;;;;1.20;1.20;;;;;;;1.17;100.00;93807.31;4351516;32;20182;-64
2023/12/02 03:49:10;;;;;;;2.42;1.80;;;;;;;1.30;100.00;93806.69;4349877;32;20207;-65
2023/12/02 03:51:38;;;;;;;3.47;3.28;;;;;;;1.01;100.00;93822.31;4315547;32;20189;-64
2023/12/02 03:54:04;;;;;;;2.33;2.22;;;;;;;1.10;100.00;93825.88;4332442;32;20200;-63
2023/12/02 03:56:30;;;;;;;1.80;1.70;;;;;;;1.09;100.00;93821.72;4298066;33;20229;-64
2023/12/02 03:58:57;;;;;;;1.23;1.23;;;;;;;1.17;100.00;93818.53;4322100;32;20182;-64
2023/12/02 04:01:23;;;;;;;2.08;1.92;;;;;;;1.35;100.00;93802.22;4338682;32;20189;-64
2023/12/02 04:03:49;;;;;;;1.70;1.70;;;;;;;1.26;100.00;93793.38;4311799;32;20212;-64
2023/12/02 04:06:14;;;;;;;1.30;1.30;;;;;;;1.18;100.00;93778.31;4334243;32;20185;-64
2023/12/02 04:08:42;;;;;;;2.47;2.37;;;;;;;1.42;100.00;93773.16;4338531;32;20267;-64
2023/12/02 04:11:09;;;;;;;1.87;1.77;;;;;;;1.26;100.00;93764.66;4339240;32;20176;-64
2023/12/02 04:13:34;;;;;;;2.83;2.63;;;;;;;1.35;100.00;93770.88;4345752;32;20284;-64
2023/12/02 04:16:00;;;;;;;1.03;1.03;;;;;;;1.52;100.00;93756.63;4343939;32;20282;-64
2023/12/02 04:18:25;;;;;;;2.40;2.30;;;;;;;1.57;100.00;93759.19;4282114;32;20341;-64
2023/12/02 04:20:50;;;;;;;1.63;1.63;;;;;;;1.42;100.00;93769.78;4292580;32;20244;-64
2023/12/02 04:23:16;;;;;;;3.77;3.50;;;;;;;1.61;100.00;93786.34;4344386;32;20182;-64
2023/12/02 04:25:41;;;;;;;3.50;2.37;;;;;;;1.42;100.00;93822.81;4346360;32;20184;-63
2023/12/02 04:28:07;;;;;;;2.83;2.63;;;;;;;1.41;100.00;93843.97;4330418;32;20181;-64
2023/12/02 04:30:37;;;;;;;2.10;2.00;;;;;;;1.43;100.00;93842.66;4328675;32;20191;-64
2023/12/02 04:33:04;;;;;;;1.93;1.83;;;;;;;1.60;100.00;93850.87;4347764;32;20289;-64
2023/12/02 04:35:34;;;;;;;1.53;1.43;;;;;;;1.42;100.00;93846.31;4349708;32;20290;-64
2023/12/02 04:37:59;;;;;;;2.37;2.20;;;;;;;1.47;100.00;93859.31;4351361;32;20299;-65
2023/12/02 04:40:25;;;;;;;3.23;3.03;;;;;;;1.40;100.00;93842.41;4336001;32;20281;-64
2023/12/02 04:42:50;;;;;;;5.93;2.83;;;;;;;1.13;100.00;93838.41;4326761;32;20226;-63
2023/12/02 04:45:17;;;;;;;2.63;2.17;;;;;;;1.25;100.00;93835.44;4318074;32;20188;-64
2023/12/02 04:47:43;;;;;;;3.07;2.97;;;;;;;1.22;100.00;93823.72;4329664;32;20205;-64
2023/12/02 04:50:11;;;;;;;2.23;2.13;;;;;;;1.35;100.00;93836.16;4319880;32;20285;-63
2023/12/02 04:52:38;;;;;;;1.90;1.80;;;;;;;0.96;100.00;93817.88;4295739;32;20282;-63
2023/12/02 04:55:04;;;;;;;1.98;1.87;;;;;;;1.08;100.00;93814.16;4308917;32;20208;-63
2023/12/02 04:57:30;;;;;;;2.90;2.73;;;;;;;1.01;100.00;93819.69;4305838;32;20190;-66
2023/12/02 04:59:56;;;;;;;3.67;3.40;;;;;;;0.85;100.00;93820.81;4313846;32;20231;-64
2023/12/02 05:02:23;;;;;;;2.87;2.67;;;;;;;1.01;100.00;93823.09;4351170;32;20292;-64
2023/12/02 05:04:50;;;;;;;3.33;3.15;;;;;;;0.99;100.00;93833.00;4340123;32;20268;-64
2023/12/02 05:07:15;;;;;;;2.58;2.37;;;;;;;0.75;100.00;93845.16;4346065;32;20200;-64
2023/12/02 05:09:43;;;;;;;2.47;2.37;;;;;;;1.04;100.00;93835.56;4310113;32;20284;-64
2023/12/02 05:12:08;;;;;;;2.67;2.58;;;;;;;1.04;100.00;93840.00;4321836;32;20189;-64
2023/12/02 05:14:34;;;;;;;3.00;2.73;;;;;;;0.94;100.00;93845.31;4325666;32;20239;-63
2023/12/02 05:17:00;;;;;;;4.00;3.55;;;;;;;0.88;100.00;93848.97;4332723;32;20271;-65
2023/12/02 05:19:29;;;;;;;1.97;1.87;;;;;;;0.73;100.00;93865.50;4328810;32;20200;-65
2023/12/02 05:21:54;;;;;;;1.58;1.58;;;;;;;0.95;100.00;93867.75;4318027;32;20214;-64
2023/12/02 05:24:21;;;;;;;2.47;2.37;;;;;;;1.12;100.00;93868.16;4330936;32;20186;-64
2023/12/02 05:26:47;;;;;;;1.95;1.95;;;;;;;1.07;100.00;93881.25;4300849;32;20211;-64
2023/12/02 05:29:13;;;;;;;1.60;1.50;;;;;;;0.86;100.00;93885.00;4318649;32;20193;-64
2023/12/02 05:31:38;;;;;;;1.83;1.73;;;;;;;0.68;100.00;93895.00;4334746;32;20173;-64
2023/12/02 05:34:04;;;;;;;3.70;3.50;;;;;;;0.92;100.00;93899.59;4344216;32;20185;-63
2023/12/02 05:36:29;;;;;;;2.00;1.90;;;;;;;1.14;100.00;93894.78;4320586;32;20219;-64
2023/12/02 05:38:54;;;;;;;2.33;2.23;;;;;;;1.09;100.00;93894.81;4307577;32;20256;-64
2023/12/02 05:41:20;;;;;;;1.37;1.37;;;;;;;0.97;100.00;93896.97;4341925;32;20264;-65
2023/12/02 05:43:47;;;;;;;2.43;2.33;;;;;;;0.96;100.00;93892.81;4358786;32;20182;-64
2023/12/02 05:46:17;;;;;;;2.85;2.75;;;;;;;1.18;100.00;93898.44;4349227;32;20204;-63
2023/12/02 05:48:44;;;;;;;2.70;2.60;;;;;;;1.31;100.00;93899.66;4308269;32;20188;-64
2023/12/02 05:51:12;;;;;;;2.83;2.72;;;;;;;1.21;100.00;93892.69;4322968;32;20181;-63
2023/12/02 05:53:38;;;;;;;3.70;3.12;;;;;;;1.05;100.00;93878.13;4341573;32;20231;-63
2023/12/02 05:56:04;;;;;;;2.13;2.03;;;;;;;0.73;100.00;93886.38;4343229;32;20177;-62
2023/12/02 05:58:35;;;;;;;1.67;1.58;;;;;;;0.99;100.00;93889.66;4331046;32;20203;-65
2023/12/02 06:01:01;;;;;;;2.10;1.98;;;;;;;1.00;100.00;93886.78;4358180;32;20185;-64
2023/12/02 06:03:28;;;;;;;4.03;2.57;;;;;;;1.04;100.00;93876.56;4330865;32;20250;-64
2023/12/02 06:05:55;;;;;;;2.65;2.45;;;;;;;0.98;100.00;93882.88;4360280;32;20222;-64
2023/12/02 06:08:21;;;;;;;3.67;3.40;;;;;;;0.90;100.00;93883.44;4346298;32;20189;-65
2023/12/02 06:10:46;;;;;;;3.10;2.90;;;;;;;0.95;100.00;93896.47;4327418;32;20251;-65
2023/12/02 06:13:13;;;;;;;2.53;2.43;;;;;;;0.94;100.00;93893.06;4350584;32;20260;-64
2023/12/02 06:15:41;;;;;;;6.85;2.40;;;;;;;0.98;100.00;93898.53;4335575;32;20196;-64
2023/12/02 06:18:06;;;;;;;2.05;1.95;;;;;;;0.76;100.00;93903.34;4327820;32;20199;-64
2023/12/02 06:20:33;;;;;;;2.63;2.47;;;;;;;0.93;100.00;93901.16;4311337;32;20210;-65
2023/12/02 06:22:59;;;;;;;3.80;3.50;;;;;;;0.97;100.00;93918.66;4327378;32;20185;-65
2023/12/02 06:25:27;;;;;;;2.00;1.90;;;;;;;1.02;100.00;93926.47;4336311;32;20196;-65
2023/12/02 06:27:54;;;;;;;3.40;3.20;;;;;;;1.00;100.00;93927.78;4310039;32;20181;-65
2023/12/02 06:30:19;;;;;;;6.77;4.17;;;;;;;1.31;100.00;93939.63;4334039;32;20219;-65
2023/12/02 06:32:47;;;;;;;3.53;3.33;;;;;;;1.42;100.00;93953.41;4334578;32;20270;-64
2023/12/02 06:35:13;;;;;;;3.03;2.80;;;;;;;1.42;100.00;93944.81;4337846;32;20197;-65
2023/12/02 06:37:38;;;;;;;3.83;3.57;;;;;;;1.15;100.00;93951.19;4340890;32;20281;-64
2023/12/02 06:40:04;;;;;;;2.67;2.57;;;;;;;1.34;100.00;93956.59;4299801;33;20182;-63
2023/12/02 06:42:29;;;;;;;4.60;4.27;;;;;;;1.28;100.00;93941.97;4333362;32;20197;-64
2023/12/02 06:44:58;;;;;;;3.27;3.07;;;;;;;1.34;100.00;93946.12;4333477;32;20177;-64
2023/12/02 06:47:23;;;;;;;3.97;3.53;;;;;;;1.28;100.00;93958.44;4317343;32;20273;-65
2023/12/02 06:49:50;;;;;;;2.35;2.15;;;;;;;1.14;100.00;93967.91;4345118;32;20296;-64
2023/12/02 06:52:15;;;;;;;2.03;1.93;;;;;;;1.14;100.00;93978.34;4349583;32;20189;-65
2023/12/02 06:54:40;;;;;;;4.93;3.33;;;;;;;1.37;100.00;93990.78;4299453;32;20272;-65
2023/12/02 06:57:06;;;;;;;2.67;2.57;;;;;;;1.15;100.00;93994.81;4292255;32;20186;-63
2023/12/02 06:59:31;;;;;;;2.73;2.57;;;;;;;0.95;100.00;93996.44;4324702;32;20220;-65
2023/12/02 07:01:57;;;;;;;2.00;1.90;;;;;;;1.36;100.00;94004.13;4333458;32;20188;-65
2023/12/02 07:04:22;;;;;;;2.80;2.60;;;;;;;1.24;100.00;94001.03;4339658;32;20181;-65
2023/12/02 07:06:47;;;;;;;2.23;2.00;;;;;;;1.13;100.00;94009.94;4349160;32;20195;-65
2023/12/02 07:09:15;;;;;;;2.60;2.40;;;;;;;0.97;100.00;94010.00;4354741;32;20182;-64
2023/12/02 07:11:41;;;;;;;6.75;3.00;;;;;;;1.05;100.00;94011.28;4335173;32;20185;-64
2023/12/02 07:14:06;;;;;;;2.75;2.55;;;;;;;1.02;100.00;94015.22;4299918;33;20190;-64
2023/12/02 07:16:32;;;;;;;2.97;2.77;;;;;;;0.96;100.00;94020.72;4339348;32;20184;-64
2023/12/02 07:18:59;;;;;;;3.27;3.00;;;;;;;1.17;100.00;94026.66;4309901;33;20201;-64
2023/12/02 07:21:26;;;;;;;2.70;2.50;;;;;;;1.12;100.00;94032.66;4332508;32;20279;-64
2023/12/02 07:23:51;;;;;;;3.10;2.90;;;;;;;1.21;100.00;94031.09;4280312;32;20241;-64
2023/12/02 07:26:17;;;;;;;2.60;2.07;;;;;;;1.19;100.00;94040.22;4326427;32;20274;-64
2023/12/02 07:28:44;;;;;;;2.50;2.40;;;;;;;1.22;100.00;94037.88;4316413;32;20264;-64
2023/12/02 07:31:15;;;;;;;3.72;3.30;;;;;;;1.12;100.00;94031.88;4327345;32;20185;-64
2023/12/02 07:33:42;;;;;;;2.17;2.07;;;;;;;1.00;100.00;94042.63;4326876;32;20209;-64
2023/12/02 07:36:09;;;;;;;2.03;1.85;;;;;;;1.09;100.00;94048.09;4303957;32;20331;-64
2023/12/02 07:38:36;;;;;;;2.60;2.37;;;;;;;1.07;100.00;94042.34;4318486;32;20181;-64
2023/12/02 07:41:01;;;;;;;1.25;1.20;;;;;;;0.95;100.00;94050.47;4324466;32;20184;-65
2023/12/02 07:43:27;;;;;;;1.50;1.40;;;;;;;0.95;100.00;94050.47;4302880;32;20216;-64
2023/12/02 07:45:52;;;;;;;2.50;2.40;;;;;;;0.85;100.00;94050.47;4302672;32;20190;-64
2023/12/02 07:48:18;;;;;;;2.30;2.13;;;;;;;0.84;100.00;94059.34;4345473;32;20242;-64
2023/12/02 07:50:46;;;;;;;2.87;2.63;;;;;;;0.79;100.00;94056.78;4295635;32;20188;-64
2023/12/02 07:53:12;;;;;;;2.37;2.28;;;;;;;0.84;100.00;94054.91;4336992;32;20188;-64
2023/12/02 07:55:39;;;;;;;2.65;2.35;;;;;;;0.98;100.00;94039.50;4353049;32;20256;-64
2023/12/02 07:58:04;;;;;;;3.72;3.53;;;;;;;0.93;100.00;94039.50;4343027;32;20185;-63
2023/12/02 08:00:31;;;;;;;2.93;2.73;;;;;;;0.76;100.00;94039.03;4301987;32;20232;-64
2023/12/02 08:02:56;;;;;;;4.93;4.45;;;;;;;0.90;100.00;94042.66;4324925;32;20249;-66
2023/12/02 08:05:23;;;;;;;3.47;2.83;;;;;;;0.82;100.00;94041.37;4324387;32;20189;-64
2023/12/02 08:07:51;;;;;;;1.52;1.52;;;;;;;0.71;100.00;94044.25;4336982;32;20237;-58
2023/12/02 08:10:19;;;;;;;2.57;2.47;;;;;;;5.29;100.00;94031.53;4339145;32;20170;-57
2023/12/02 08:12:45;;;;;;;4.53;4.17;;;;;;;6.55;100.00;94038.66;4338139;32;20296;-58
2023/12/02 08:15:10;;;;;;;3.73;3.43;;;;;;;7.62;100.00;94043.88;4340914;32;20290;-57
2023/12/02 08:17:38;;;;;;;2.37;2.20;;;;;;;9.01;84.55;94046.31;4329573;32;20198;-58
2023/12/02 08:20:05;;;;;;;3.00;2.77;;;;;;;9.14;76.34;94047.22;4303076;32;20219;-58
2023/12/02 08:22:33;;;;;;;2.73;2.53;;;;;;;9.41;72.53;94046.81;4344762;32;20344;-58
2023/12/02 08:24:58;;;;;;;2.93;2.50;;;;;;;9.74;67.12;94051.53;4342124;32;20319;-54
2023/12/02 08:27:25;;;;;;;2.10;2.00;;;;;;;9.47;58.00;94061.44;4336151;32;20365;-64
2023/12/02 08:29:52;;;;;;;3.37;3.17;;;;;;;6.93;63.51;94083.09;4297306;32;20221;-64
2023/12/02 08:35:41;;;;;;;2.53;2.43;;;;;;;3.70;77.25;94097.25;4327025;32;20296;-64
2023/12/02 08:38:09;;;;;;;4.20;3.80;;;;;;;2.69;82.46;94094.56;4287641;32;20286;-63
2023/12/02 08:40:34;;;;;;;4.30;3.90;;;;;;;2.23;85.95;94090.69;4328686;32;20322;-63
2023/12/02 08:43:01;;;;;;;2.80;2.60;;;;;;;1.96;87.42;94102.34;4357092;32;20356;-64
2023/12/02 08:45:27;;;;;;;2.20;2.10;;;;;;;1.66;90.53;94094.66;4329588;32;20229;-64
2023/12/02 08:47:58;;;;;;;3.07;2.87;;;;;;;1.51;92.19;94098.09;4325479;32;20198;-63
2023/12/02 08:50:24;;;;;;;3.33;2.90;;;;;;;1.25;93.75;94097.38;4337363;32;20289;-63
2023/12/02 08:52:49;;;;;;;2.30;2.20;;;;;;;1.13;94.70;94094.28;4326158;32;20319;-64
2023/12/02 08:55:15;;;;;;;1.43;1.43;;;;;;;1.16;96.57;94093.00;4318846;32;20271;-64
2023/12/02 08:57:43;;;;;;;2.53;2.43;;;;;;;1.36;95.81;94093.72;4331024;32;20193;-63
2023/12/02 09:00:10;;;;;;;2.27;2.17;;;;;;;1.19;96.55;94108.13;4311685;32;20190;-63
2023/12/02 09:02:38;;;;;;;2.80;1.83;;;;;;;1.03;96.13;94102.94;4341946;32;20296;-62
2023/12/02 09:05:08;;;;;;;2.03;1.92;;;;;;;1.10;95.01;94109.69;4314643;32;20237;-63
2023/12/02 09:07:33;;;;;;;3.17;2.53;;;;;;;0.92;96.52;94108.44;4307522;32;20243;-63
2023/12/02 09:10:03;;;;;;;2.25;2.05;;;;;;;0.83;97.21;94113.38;4343588;32;20181;-63
2023/12/02 09:12:29;;;;;;;2.28;2.22;;;;;;;0.99;98.37;94124.63;4342436;32;20181;-64
2023/12/02 09:15:16;;;;;;;2.43;2.33;;;;;;;0.87;100.00;94126.69;4342453;32;20307;-63
2023/12/02 09:18:08;;;;;;;3.28;1.90;;;;;;;1.00;100.00;94131.41;4335416;32;20232;-63
2023/12/02 09:20:45;;;;;;;1.55;1.55;;;;;;;1.06;100.00;94143.38;4306524;32;20193;-64
2023/12/02 09:23:17;;;;;;;3.37;3.17;;;;;;;0.91;100.00;94140.78;4317237;32;20178;-63
2023/12/02 09:25:47;;;;;;;3.08;2.85;;;;;;;0.94;100.00;94143.66;4329802;32;20247;-63
2023/12/02 09:28:29;;;;;;;2.67;2.40;;;;;;;0.93;100.00;94142.09;4274488;33;20236;-63
2023/12/02 09:31:04;;;;;;;2.53;1.92;;;;;;;0.87;100.00;94137.13;4300010;32;20354;-63
2023/12/02 09:33:32;;;;;;;2.85;2.65;;;;;;;1.04;100.00;94127.19;4313439;32;20248;-64
2023/12/02 09:36:03;;;;;;;2.47;2.37;;;;;;;0.98;100.00;94131.66;4287704;32;20247;-64
2023/12/02 09:38:29;;;;;;;2.00;1.90;;;;;;;0.84;100.00;94143.66;4332744;32;20227;-63
2023/12/02 09:41:37;;;;;;;5.27;2.23;;;;;;;1.18;100.00;94138.69;4349976;32;20334;-63
2023/12/02 09:44:21;;;;;;;2.10;1.83;;;;;;;0.78;100.00;94129.06;4284211;33;20198;-63
2023/12/02 09:47:09;;;;;;;1.70;1.60;;;;;;;0.50;100.00;94132.16;4284008;32;20244;-66
2023/12/02 09:49:44;;;;;;;1.75;1.65;;;;;;;0.44;100.00;94128.78;4292915;33;20194;-63
2023/12/02 09:52:34;;;;;;;2.35;2.15;;;;;;;0.40;100.00;94147.81;4296215;32;20256;-63
2023/12/02 09:55:44;;;;;;;3.25;2.95;;;;;;;0.48;100.00;94155.91;4329658;32;20245;-63
2023/12/02 09:58:24;;;;;;;1.23;1.20;;;;;;;0.31;100.00;94158.75;4329507;32;20215;-62
2023/12/02 10:01:02;;;;;;;2.78;2.58;;;;;;;0.24;100.00;94178.28;4324337;32;20181;-63
2023/12/02 10:04:18;;;;;;;2.42;2.22;;;;;;;0.29;100.00;94194.72;4284718;33;20208;-63
2023/12/02 10:06:57;;;;;;;3.45;1.75;;;;;;;0.42;100.00;94198.66;4352427;32;20185;-63
2023/12/02 10:09:44;;;;;;;2.75;2.12;;;;;;;0.43;100.00;94221.09;4327484;32;20200;-63
2023/12/02 10:12:09;;;;;;;2.33;1.92;;;;;;;0.57;100.00;94232.63;4323167;32;20194;-63
2023/12/02 10:14:41;;;;;;;2.47;2.23;;;;;;;0.80;100.00;94254.06;4328154;32;20264;-62
2023/12/02 10:17:11;;;;;;;2.08;1.98;;;;;;;0.86;100.00;94266.84;4332704;32;20211;-64
2023/12/02 10:19:46;;;;;;;1.90;1.80;;;;;;;1.11;100.00;94267.94;4308570;32;20278;-63
2023/12/02 10:22:16;;;;;;;2.12;2.03;;;;;;;1.04;100.00;94283.84;4321208;32;20272;-63
2023/12/02 10:25:04;;;;;;;2.03;1.93;;;;;;;1.17;100.00;94278.13;4314079;32;20186;-64
2023/12/02 10:27:36;;;;;;;2.90;2.80;;;;;;;1.25;100.00;94261.94;4324466;32;20316;-64
2023/12/02 10:30:15;;;;;;;2.97;2.77;;;;;;;1.33;100.00;94260.63;4314671;33;20304;-64
2023/12/02 10:33:25;;;;;;;1.50;1.50;;;;;;;1.10;98.89;94248.88;4322715;32;20272;-63
2023/12/02 10:35:53;;;;;;;;;;;;;;;1.01;96.15;94242.62;4343992;32;20300;-64
2023/12/02 10:38:44;;;;;;;2.33;2.22;;;;;;;0.68;97.53;94247.25;4303785;32;20248;-64
2023/12/02 10:41:39;;;;;;;2.05;1.50;;;;;;;1.02;97.07;94239.75;4327950;32;20189;-63
2023/12/02 10:44:07;;;;;;;1.70;1.60;;;;;;;0.84;94.41;94234.22;4320662;32;20189;-64
2023/12/02 10:46:33;;;;;;;3.05;2.80;;;;;;;0.50;95.19;94242.50;4337222;32;20168;-64
2023/12/02 10:49:01;;;;;;;1.52;1.52;;;;;;;0.64;95.86;94233.16;4340092;32;20185;-64
2023/12/02 10:51:27;;;;;;;1.37;1.37;;;;;;;0.88;96.33;94237.88;4319416;32;20283;-64
2023/12/02 10:53:59;;;;;;;2.22;2.12;;;;;;;0.95;94.55;94238.44;4341113;32;20219;-64
2023/12/02 10:56:30;;;;;;;2.72;2.53;;;;;;;0.99;94.39;94234.25;4302212;32;20273;-64
2023/12/02 10:58:57;;;;;;;2.80;2.58;;;;;;;1.10;93.89;94232.41;4342400;32;20253;-64
2023/12/02 11:01:31;;;;;;;4.18;3.15;;;;;;;0.98;94.64;94224.84;4336437;32;20257;-64
2023/12/02 11:04:18;;;;;;;3.35;3.17;;;;;;;0.83;92.68;94243.12;4299524;33;20201;-63
2023/12/02 11:07:00;;;;;;;1.87;1.77;;;;;;;1.01;93.41;94238.19;4351015;32;20191;-64
2023/12/02 11:09:33;;;;;;;1.67;1.58;;;;;;;0.97;92.88;94236.34;4357694;32;20253;-64
2023/12/02 11:12:40;;;;;;;2.08;1.98;;;;;;;1.07;92.39;94246.78;4346418;32;20260;-63
2023/12/02 11:15:11;;;;;;;1.75;1.75;;;;;;;1.05;92.14;94233.19;4327700;32;20236;-63
2023/12/02 11:18:04;;;;;;;2.90;1.60;;;;;;;0.97;93.88;94236.34;4283357;33;20193;-63
2023/12/02 11:20:49;;;;;;;;;;;;;;;1.04;93.42;94253.31;4339176;32;20200;-64
2023/12/02 11:23:44;;;;;;;1.77;1.73;;;;;;;1.21;92.98;94257.50;4324693;32;20259;-64
2023/12/02 11:26:31;;;;;;;1.55;1.55;;;;;;;1.18;91.70;94269.25;4334813;32;20197;-63
2023/12/02 11:29:22;;;;;;;2.70;2.57;;;;;;;1.15;90.84;94276.81;4294276;32;20371;-63
2023/12/02 11:32:24;;;;;;;3.28;3.08;;;;;;;1.18;91.88;94284.94;4350820;32;20293;-64
2023/12/02 11:35:16;;;;;;;4.97;4.50;;;;;;;1.26;91.47;94296.66;4280652;32;20201;-63
2023/12/02 11:38:09;;;;;;;2.33;2.23;;;;;;;1.60;91.72;94307.41;4322636;32;20217;-63
2023/12/02 11:41:21;;;;;;;2.80;2.60;;;;;;;1.51;88.82;94319.41;4351186;32;20310;-64
2023/12/02 11:44:27;;;;;;;2.97;2.63;;;;;;;1.41;89.11;94324.66;4317213;32;20357;-64
2023/12/02 11:47:04;;;;;;;1.93;1.90;;;;;;;1.66;89.75;94328.03;4313999;32;20316;-64
2023/12/02 11:49:44;;;;;;;3.23;3.03;;;;;;;1.37;89.45;94338.22;4350909;32;20274;-64
2023/12/02 11:52:31;;;;;;;3.17;2.97;;;;;;;1.45;89.92;94341.38;4312789;32;20273;-63